createdAt,value
2022-11-11T00:02:42.099Z,38.78
2022-11-11T00:05:28.464Z,36.28
2022-11-11T00:08:14.117Z,38.15
2022-11-11T00:11:12.787Z,38.90
2022-11-11T00:13:58.286Z,39.85
2022-11-11T00:17:02.286Z,40.95
2022-11-11T00:20:06.264Z,39.47
2022-11-11T00:23:10.064Z,39.45
2022-11-11T00:26:17.872Z,37.35
2022-11-11T00:29:01.566Z,38.28
2022-11-11T00:32:05.717Z,39.80
2022-11-11T00:35:11.288Z,38.92
2022-11-11T00:38:08.743Z,39.33
2022-11-11T00:40:53.920Z,39.70
2022-11-11T00:43:39.612Z,42.45
2022-11-11T00:46:43.292Z,41.78
2022-11-11T00:49:47.435Z,47.80
2022-11-11T00:52:32.870Z,50.97
2022-11-11T00:55:18.537Z,42.17
2022-11-11T00:58:03.938Z,43.33
2022-11-11T01:00:55.666Z,43.72
2022-11-11T01:03:41.704Z,43.28
2022-11-11T01:06:27.974Z,43.17
2022-11-11T01:09:13.393Z,42.08
2022-11-11T01:11:59.223Z,41.03
2022-11-11T01:14:44.729Z,41.05
2022-11-11T01:17:30.356Z,40.72
2022-11-11T01:20:16.373Z,40.80
2022-11-11T01:23:02.104Z,38.28
2022-11-11T01:25:47.638Z,40.25
2022-11-11T01:28:34.128Z,36.65
2022-11-11T01:31:22.953Z,40.92
2022-11-11T01:34:08.843Z,40.15
2022-11-11T01:36:54.544Z,38.67
2022-11-11T01:39:40.211Z,37.50
2022-11-11T01:42:26.246Z,38.25
2022-11-11T01:45:42.491Z,37.55
2022-11-11T01:48:53.043Z,38.72
2022-11-11T01:52:04.905Z,40.05
2022-11-11T01:55:08.090Z,39.60
2022-11-11T01:58:01.352Z,40.92
2022-11-11T02:00:47.369Z,40.92
2022-11-11T02:03:40.527Z,44.88
2022-11-11T02:06:28.209Z,46.17
2022-11-11T02:09:14.109Z,45.03
2022-11-11T02:12:23.026Z,46.10
2022-11-11T02:15:09.482Z,45.28
2022-11-11T02:17:55.032Z,47.42
2022-11-11T02:20:44.603Z,45.35
2022-11-11T02:23:44.627Z,52.33
2022-11-11T02:26:33.650Z,45.35
2022-11-11T02:29:21.850Z,45.35
2022-11-11T02:32:07.352Z,47.15
2022-11-11T02:34:52.795Z,46.38
2022-11-11T02:37:38.281Z,46.22
2022-11-11T02:40:39.232Z,46.22
2022-11-11T02:43:25.602Z,46.20
2022-11-11T02:46:11.259Z,50.35
2022-11-11T02:48:56.647Z,46.70
2022-11-11T02:51:42.600Z,46.25
2022-11-11T02:54:28.865Z,47.30
2022-11-11T02:57:14.527Z,48.47
2022-11-11T03:00:01.315Z,46.88
2022-11-11T03:02:47.153Z,49.10
2022-11-11T03:05:33.007Z,48.80
2022-11-11T03:08:19.216Z,49.90
2022-11-11T03:11:05.317Z,49.85
2022-11-11T03:13:50.996Z,49.38
2022-11-11T03:16:56.083Z,49.35
2022-11-11T03:19:41.717Z,51.55
2022-11-11T03:25:40.652Z,50.17
2022-11-11T03:28:26.520Z,49.67
2022-11-11T03:31:12.140Z,48.67
2022-11-11T03:34:17.629Z,47.17
2022-11-11T03:37:24.725Z,49.20
2022-11-11T03:40:10.804Z,50.63
2022-11-11T03:43:01.194Z,53.65
2022-11-11T03:45:50.650Z,58.20
2022-11-11T03:48:36.409Z,53.30
2022-11-11T03:51:22.474Z,49.70
2022-11-11T03:54:08.057Z,53.00
2022-11-11T03:57:14.231Z,53.33
2022-11-11T03:59:59.824Z,49.28
2022-11-11T04:03:03.931Z,48.65
2022-11-11T04:06:08.476Z,53.78
2022-11-11T04:09:12.969Z,50.05
2022-11-11T04:11:58.697Z,53.35
2022-11-11T04:15:02.885Z,51.63
2022-11-11T04:17:48.837Z,52.33
2022-11-11T04:20:53.178Z,53.45
2022-11-11T04:23:38.820Z,55.72
2022-11-11T04:26:24.415Z,51.78
2022-11-11T04:29:28.306Z,56.67
2022-11-11T04:32:49.502Z,51.50
2022-11-11T04:35:35.042Z,54.05
2022-11-11T04:38:39.444Z,57.88
2022-11-11T04:41:36.106Z,62.55
2022-11-11T04:44:48.806Z,57.42
2022-11-11T04:47:34.411Z,62.53
2022-11-11T04:50:19.572Z,63.97
2022-11-11T04:53:10.870Z,59.15
2022-11-11T04:56:14.967Z,59.67
2022-11-11T04:59:20.258Z,59.17
2022-11-11T05:02:24.519Z,58.88
2022-11-11T05:05:10.279Z,56.15
2022-11-11T05:08:15.012Z,59.60
2022-11-11T05:11:00.597Z,61.63
2022-11-11T05:14:05.343Z,57.42
2022-11-11T05:17:16.206Z,58.40
2022-11-11T05:20:20.752Z,53.28
2022-11-11T05:23:06.605Z,57.97
2022-11-11T05:25:52.699Z,55.42
2022-11-11T05:28:38.029Z,53.95
2022-11-11T05:31:24.725Z,57.28
2022-11-11T05:34:10.309Z,50.20
2022-11-11T05:36:57.299Z,53.22
2022-11-11T05:39:43.892Z,52.63
2022-11-11T05:42:29.455Z,50.53
2022-11-11T05:45:15.113Z,48.95
2022-11-11T05:48:04.218Z,51.17
2022-11-11T05:50:50.138Z,52.17
2022-11-11T05:53:35.759Z,49.95
2022-11-11T05:56:21.305Z,49.65
2022-11-11T05:59:08.436Z,49.10
2022-11-11T06:01:55.287Z,48.85
2022-11-11T06:04:41.068Z,48.63
2022-11-11T06:07:29.833Z,49.80
2022-11-11T06:10:30.588Z,49.50
2022-11-11T06:13:16.077Z,44.35
2022-11-11T06:16:02.153Z,47.85
2022-11-11T06:18:47.985Z,48.50
2022-11-11T06:21:53.704Z,43.45
2022-11-11T06:24:39.070Z,47.65
2022-11-11T06:27:24.455Z,48.00
2022-11-11T06:30:44.126Z,47.60
2022-11-11T06:33:16.234Z,46.42
2022-11-11T06:36:02.657Z,47.45
2022-11-11T06:38:48.541Z,46.97
2022-11-11T06:41:33.805Z,46.17
2022-11-11T06:44:19.513Z,45.65
2022-11-11T06:47:05.437Z,46.28
2022-11-11T06:49:51.113Z,47.00
2022-11-11T06:52:36.821Z,44.47
2022-11-11T06:55:22.529Z,44.80
2022-11-11T06:58:16.599Z,48.45
2022-11-11T07:01:06.134Z,44.13
2022-11-11T07:03:51.585Z,49.88
2022-11-11T07:06:37.114Z,47.40
2022-11-11T07:09:23.479Z,50.30
2022-11-11T07:12:09.259Z,47.45
2022-11-11T07:14:54.543Z,49.10
2022-11-11T07:17:39.979Z,47.75
2022-11-11T07:20:25.514Z,54.17
2022-11-11T07:23:11.516Z,50.70
2022-11-11T07:25:56.956Z,52.95
2022-11-11T07:28:42.636Z,54.67
2022-11-11T07:31:28.657Z,53.03
2022-11-11T07:34:14.245Z,55.28
2022-11-11T07:36:59.928Z,55.63
2022-11-11T07:39:45.579Z,55.47
2022-11-11T07:42:31.985Z,56.83
2022-11-11T07:45:17.800Z,57.17
2022-11-11T07:48:03.424Z,60.17
2022-11-11T07:50:49.066Z,57.85
2022-11-11T07:53:34.585Z,58.28
2022-11-11T07:56:20.103Z,59.95
2022-11-11T07:59:05.822Z,57.42
2022-11-11T08:01:51.327Z,59.92
2022-11-11T08:04:36.877Z,59.30
2022-11-11T08:07:23.627Z,57.38
2022-11-11T08:10:11.177Z,57.15
2022-11-11T08:13:15.574Z,57.97
2022-11-11T08:16:02.893Z,56.45
2022-11-11T08:18:48.261Z,59.95
2022-11-11T08:21:34.327Z,60.03
2022-11-11T08:27:25.607Z,59.05
2022-11-11T08:30:11.708Z,60.53
2022-11-11T08:36:17.640Z,65.60
2022-11-11T08:39:07.181Z,65.68
2022-11-11T08:41:53.019Z,66.32
2022-11-11T08:44:39.187Z,66.28
2022-11-11T08:47:25.192Z,66.63
2022-11-11T08:50:11.486Z,69.75
2022-11-11T08:52:57.604Z,66.53
2022-11-11T08:55:43.159Z,65.80
2022-11-11T08:58:29.203Z,64.75
2022-11-11T09:01:15.720Z,63.95
2022-11-11T09:04:16.670Z,62.03
2022-11-11T09:07:09.480Z,58.97
2022-11-11T09:09:55.859Z,58.72
2022-11-11T09:12:41.207Z,59.10
2022-11-11T09:15:27.522Z,55.33
2022-11-11T09:18:13.090Z,57.70
2022-11-11T09:21:00.126Z,59.42
2022-11-11T09:23:45.846Z,60.80
2022-11-11T09:26:32.165Z,57.53
2022-11-11T09:29:18.452Z,54.22
2022-11-11T09:32:05.533Z,57.38
2022-11-11T09:34:51.271Z,60.08
2022-11-11T09:37:37.505Z,61.53
2022-11-11T09:40:29.722Z,58.83
2022-11-11T09:43:48.263Z,60.92
2022-11-11T09:46:40.978Z,55.53
2022-11-11T09:50:00.211Z,59.88
2022-11-11T09:53:11.702Z,59.13
2022-11-11T09:56:29.641Z,58.13
2022-11-11T09:59:29.232Z,58.45
2022-11-11T10:02:42.053Z,58.03
2022-11-11T10:05:45.213Z,56.53
2022-11-11T10:08:45.531Z,59.72
2022-11-11T10:11:47.844Z,54.33
2022-11-11T10:14:45.592Z,50.95
2022-11-11T10:17:40.871Z,52.25
2022-11-11T10:20:33.029Z,52.28
2022-11-11T10:23:26.947Z,51.45
2022-11-11T10:26:21.280Z,48.70
2022-11-11T10:29:19.119Z,49.93
2022-11-11T10:32:16.350Z,45.88
2022-11-11T10:35:31.008Z,48.88
2022-11-11T10:38:35.790Z,47.77
2022-11-11T10:41:37.787Z,48.38
2022-11-11T10:44:27.971Z,48.05
2022-11-11T10:47:41.361Z,47.08
2022-11-11T10:50:36.784Z,45.17
2022-11-11T10:53:44.430Z,46.83
2022-11-11T10:57:15.967Z,43.53
2022-11-11T11:00:09.894Z,43.13
2022-11-11T11:03:26.068Z,43.50
2022-11-11T11:06:26.861Z,40.75
2022-11-11T11:09:35.330Z,38.72
2022-11-11T11:12:40.329Z,40.67
2022-11-11T11:15:29.181Z,38.45
2022-11-11T11:18:19.111Z,38.80
2022-11-11T11:21:08.789Z,37.35
2022-11-11T11:23:54.815Z,37.13
2022-11-11T11:26:51.752Z,36.28
2022-11-11T11:29:43.910Z,36.25
2022-11-11T11:32:32.668Z,37.10
2022-11-11T11:35:35.636Z,35.97
2022-11-11T11:38:21.257Z,35.97
2022-11-11T11:41:06.933Z,35.03
2022-11-11T11:43:52.179Z,34.95
2022-11-11T11:46:41.116Z,33.63
2022-11-11T11:50:07.620Z,34.85
2022-11-11T11:53:38.916Z,33.72
2022-11-11T11:56:30.571Z,33.72
2022-11-11T11:59:45.504Z,34.35
2022-11-11T12:03:09.552Z,34.08
2022-11-11T12:06:26.269Z,33.08
2022-11-11T12:09:37.859Z,30.85
2022-11-11T12:12:52.766Z,31.67
2022-11-11T12:16:06.078Z,32.95
2022-11-11T12:19:26.161Z,32.08
2022-11-11T12:22:30.781Z,29.35
2022-11-11T12:25:58.224Z,29.90
2022-11-11T12:28:58.869Z,30.27
2022-11-11T12:32:20.021Z,32.70
2022-11-11T12:35:27.207Z,33.20
2022-11-11T12:38:24.565Z,32.20
2022-11-11T12:41:56.522Z,29.00
2022-11-11T12:45:19.917Z,29.52
2022-11-11T12:48:05.398Z,31.10
2022-11-11T12:51:39.090Z,32.90
2022-11-11T12:54:43.555Z,31.52
2022-11-11T12:57:46.570Z,33.93
2022-11-11T13:00:38.922Z,31.05
2022-11-11T13:03:46.909Z,29.13
2022-11-11T13:07:01.629Z,30.38
2022-11-11T13:10:12.803Z,28.67
2022-11-11T13:13:03.865Z,27.85
2022-11-11T13:15:49.939Z,30.33
2022-11-11T13:19:20.539Z,28.50
2022-11-11T13:22:23.678Z,30.92
2022-11-11T13:25:21.498Z,29.00
2022-11-11T13:28:18.302Z,29.67
2022-11-11T13:31:25.202Z,28.38
2022-11-11T13:34:15.180Z,29.73
2022-11-11T13:37:05.635Z,28.42
2022-11-11T13:39:57.693Z,27.80
2022-11-11T13:42:51.522Z,28.55
2022-11-11T13:45:42.536Z,26.52
2022-11-11T13:48:35.683Z,28.35
2022-11-11T13:51:43.603Z,26.52
2022-11-11T13:54:48.802Z,26.90
2022-11-11T13:57:36.133Z,28.58
2022-11-11T14:00:21.608Z,27.15
2022-11-11T14:03:22.048Z,25.88
2022-11-11T14:06:37.187Z,26.95
2022-11-11T14:09:58.425Z,26.02
2022-11-11T14:12:55.403Z,27.33
2022-11-11T14:15:43.518Z,27.30
2022-11-11T14:18:41.644Z,28.08
2022-11-11T14:21:54.374Z,26.48
2022-11-11T14:24:46.344Z,27.98
2022-11-11T14:27:34.121Z,27.30
2022-11-11T14:30:48.733Z,26.90
2022-11-11T14:34:27.993Z,27.50
2022-11-11T14:38:26.383Z,25.27
2022-11-11T14:41:42.384Z,28.40
2022-11-11T14:44:28.293Z,27.48
2022-11-11T14:47:13.551Z,27.38
2022-11-11T14:50:00.180Z,29.60
2022-11-11T14:52:46.758Z,29.98
2022-11-11T14:58:38.088Z,27.45
2022-11-11T15:01:25.981Z,28.67
2022-11-11T15:04:12.711Z,28.55
2022-11-11T15:07:02.874Z,29.52
2022-11-11T15:10:14.580Z,29.25
2022-11-11T15:13:55.606Z,28.73
2022-11-11T15:17:08.776Z,30.02
2022-11-11T15:20:30.920Z,28.33
2022-11-11T15:23:45.204Z,25.65
2022-11-11T15:27:05.260Z,29.42
2022-11-11T15:30:13.557Z,27.23
2022-11-11T15:33:28.509Z,30.55
2022-11-11T15:36:41.525Z,28.65
2022-11-11T15:39:41.906Z,30.80
2022-11-11T15:42:39.856Z,28.65
2022-11-11T15:45:34.038Z,29.75
2022-11-11T15:48:29.005Z,28.45
2022-11-11T15:51:21.350Z,29.35
2022-11-11T15:54:16.293Z,28.65
2022-11-11T15:57:26.257Z,32.00
2022-11-11T16:00:33.254Z,30.08
2022-11-11T16:03:32.493Z,28.10
2022-11-11T16:06:19.043Z,32.80
2022-11-11T16:09:05.124Z,30.65
2022-11-11T16:11:54.777Z,31.25
2022-11-11T16:14:47.237Z,31.42
2022-11-11T16:17:43.383Z,32.72
2022-11-11T16:20:43.298Z,33.20
2022-11-11T16:23:30.658Z,31.90
2022-11-11T16:26:20.693Z,34.97
2022-11-11T16:29:16.128Z,34.85
2022-11-11T16:32:03.650Z,36.90
2022-11-11T16:34:54.141Z,36.17
2022-11-11T16:37:54.209Z,33.83
2022-11-11T16:40:43.945Z,32.97
2022-11-11T16:43:32.789Z,36.55
2022-11-11T16:46:36.907Z,32.67
2022-11-11T16:49:38.743Z,34.75
2022-11-11T16:52:25.168Z,34.92
2022-11-11T16:55:37.957Z,30.38
2022-11-11T16:58:23.254Z,34.72
2022-11-11T17:01:10.126Z,33.13
2022-11-11T17:03:59.320Z,32.50
2022-11-11T17:06:56.721Z,33.33
2022-11-11T17:09:42.922Z,31.25
2022-11-11T17:12:32.352Z,31.50
2022-11-11T17:15:20.870Z,31.38
2022-11-11T17:18:09.001Z,31.95
2022-11-11T17:20:55.901Z,33.67
2022-11-11T17:23:41.552Z,31.10
2022-11-11T17:26:26.888Z,33.17
2022-11-11T17:29:12.521Z,32.17
2022-11-11T17:31:57.884Z,35.55
2022-11-11T17:34:43.626Z,35.05
2022-11-11T17:37:28.804Z,32.92
2022-11-11T17:40:18.907Z,29.98
2022-11-11T17:43:04.495Z,32.00
2022-11-11T17:45:51.629Z,35.80
2022-11-11T17:48:37.347Z,35.35
2022-11-11T17:51:26.253Z,37.33
2022-11-11T17:54:11.487Z,33.58
2022-11-11T17:56:57.122Z,34.00
2022-11-11T17:59:43.234Z,30.77
2022-11-11T18:02:28.819Z,32.65
2022-11-11T18:05:14.543Z,32.22
2022-11-11T18:07:59.787Z,30.73
2022-11-11T18:10:45.707Z,33.78
2022-11-11T18:13:32.125Z,37.00
2022-11-11T18:16:18.800Z,38.13
2022-11-11T18:19:05.022Z,36.28
2022-11-11T18:21:50.759Z,44.33
2022-11-11T18:24:36.449Z,40.85
2022-11-11T18:27:22.181Z,37.53
2022-11-11T18:30:09.555Z,38.35
2022-11-11T18:32:55.329Z,39.08
2022-11-11T18:35:40.988Z,38.08
2022-11-11T18:38:30.297Z,37.08
2022-11-11T18:41:19.370Z,38.88
2022-11-11T18:44:04.716Z,35.40
2022-11-11T18:46:50.031Z,36.20
2022-11-11T18:49:35.613Z,36.15
2022-11-11T18:52:21.256Z,34.90
2022-11-11T18:55:07.156Z,36.47
2022-11-11T18:57:52.740Z,35.10
2022-11-11T19:00:38.406Z,33.10
2022-11-11T19:03:24.059Z,34.92
2022-11-11T19:06:11.183Z,36.80
2022-11-11T19:08:59.771Z,34.83
2022-11-11T19:11:47.030Z,39.20
2022-11-11T19:14:32.486Z,37.65
2022-11-11T19:17:17.859Z,41.47
2022-11-11T19:20:05.810Z,43.38
2022-11-11T19:22:52.038Z,39.72
2022-11-11T19:25:39.127Z,38.63
2022-11-11T19:28:25.086Z,37.83
2022-11-11T19:31:19.594Z,39.58
2022-11-11T19:34:05.733Z,38.10
2022-11-11T19:36:51.387Z,36.75
2022-11-11T19:39:39.215Z,38.85
2022-11-11T19:42:25.579Z,36.17
2022-11-11T19:45:11.175Z,36.50
2022-11-11T19:47:56.742Z,35.83
2022-11-11T19:50:42.741Z,36.17
2022-11-11T19:53:28.537Z,33.90
2022-11-11T19:56:18.498Z,31.88
2022-11-11T19:59:04.468Z,35.25
2022-11-11T20:01:51.918Z,35.20
2022-11-11T20:04:38.297Z,31.70
2022-11-11T20:07:23.948Z,33.95
2022-11-11T20:10:10.572Z,33.60
2022-11-11T20:12:56.571Z,31.33
2022-11-11T20:15:42.670Z,31.00
2022-11-11T20:18:29.903Z,29.92
2022-11-11T20:21:15.872Z,29.27
2022-11-11T20:24:01.469Z,32.55
2022-11-11T20:26:51.835Z,30.65
2022-11-11T20:29:38.044Z,32.03
2022-11-11T20:32:23.725Z,31.83
2022-11-11T20:35:09.447Z,29.88
2022-11-11T20:37:54.898Z,30.45
2022-11-11T20:40:40.695Z,32.22
2022-11-11T20:43:29.407Z,31.48
2022-11-11T20:46:18.921Z,34.22
2022-11-11T20:49:04.656Z,34.45
2022-11-11T20:51:50.912Z,34.00
2022-11-11T20:54:38.139Z,32.55
2022-11-11T20:57:23.451Z,31.17
2022-11-11T21:00:10.091Z,34.53
2022-11-11T21:02:55.752Z,35.75
2022-11-11T21:05:41.928Z,34.75
2022-11-11T21:08:31.391Z,35.80
2022-11-11T21:11:22.310Z,34.75
2022-11-11T21:14:08.606Z,34.72
2022-11-11T21:16:54.300Z,36.05
2022-11-11T21:19:39.533Z,33.25
2022-11-11T21:22:25.419Z,34.35
2022-11-11T21:25:10.889Z,32.28
2022-11-11T21:27:56.562Z,31.17
2022-11-11T21:30:42.078Z,34.00
2022-11-11T21:33:28.195Z,32.05
2022-11-11T21:36:13.902Z,32.22
2022-11-11T21:39:03.947Z,33.55
2022-11-11T21:41:51.190Z,31.50
2022-11-11T21:44:36.328Z,29.02
2022-11-11T21:47:21.816Z,33.13
2022-11-11T21:50:07.741Z,33.65
2022-11-11T21:52:53.169Z,29.80
2022-11-11T21:55:38.923Z,31.50
2022-11-11T21:58:24.897Z,30.50
2022-11-11T22:01:41.803Z,30.15
2022-11-11T22:04:27.481Z,30.95
2022-11-11T22:07:18.832Z,30.92
2022-11-11T22:10:05.381Z,29.30
2022-11-11T22:12:52.697Z,29.45
2022-11-11T22:15:38.575Z,31.25
2022-11-11T22:18:24.646Z,29.80
2022-11-11T22:21:18.937Z,26.52
2022-11-11T22:24:08.930Z,26.95
2022-11-11T22:26:54.519Z,25.67
2022-11-11T22:29:39.961Z,27.65
2022-11-11T22:32:25.912Z,25.10
2022-11-11T22:35:11.759Z,25.63
2022-11-11T22:37:57.283Z,29.63
2022-11-11T22:40:43.534Z,29.55
2022-11-11T22:43:52.922Z,31.08
2022-11-11T22:46:36.610Z,36.67
2022-11-11T22:49:22.812Z,35.92
2022-11-11T22:52:08.267Z,34.42
2022-11-11T22:54:53.812Z,33.60
2022-11-11T22:57:39.544Z,29.98
2022-11-11T23:00:25.346Z,28.63
2022-11-11T23:03:11.032Z,28.45
2022-11-11T23:06:04.790Z,28.95
2022-11-11T23:08:51.324Z,29.95
2022-11-11T23:11:40.454Z,29.58
2022-11-11T23:14:25.867Z,30.05
2022-11-11T23:17:12.111Z,30.33
2022-11-11T23:19:57.555Z,28.92
2022-11-11T23:22:43.601Z,27.55
2022-11-11T23:25:29.465Z,26.63
2022-11-11T23:28:15.169Z,25.90
2022-11-11T23:31:10.860Z,26.70
2022-11-11T23:34:00.740Z,25.50
2022-11-11T23:36:46.261Z,26.05
2022-11-11T23:39:31.636Z,25.85
2022-11-11T23:42:17.427Z,26.17
2022-11-11T23:45:02.993Z,25.73
2022-11-11T23:47:48.611Z,24.05
2022-11-11T23:50:34.152Z,22.98
2022-11-11T23:53:20.520Z,24.92
2022-11-11T23:56:06.369Z,24.63
2022-11-11T23:58:52.097Z,25.00
